Time;durP1;ratioP1;P1;durP2;ratioP2;P2;SDS_P1;SDS_P2;PMS_P1;PMS_P2;Temp;Humidity;BMP_temperature;BMP_pressure;BME280_temperature;BME280_humidity;BME280_pressure;Samples;Min_cycle;Max_cycle;Signal;HPM_P1;HPM_P2
2022/07/09 00:00:37;;;;;;;16.67;7.55;;;16.70;99.90;;;;;;5053754;28;20037;-81
2022/07/09 00:03:03;;;;;;;13.80;5.75;;;16.60;99.90;;;;;;5067168;28;20075;-82
2022/07/09 00:05:29;;;;;;;12.43;7.00;;;16.60;99.90;;;;;;5051416;28;20809;-81
2022/07/09 00:07:54;;;;;;;11.73;7.00;;;16.60;99.90;;;;;;5071953;28;20040;-81
2022/07/09 00:10:20;;;;;;;16.60;7.57;;;16.60;99.90;;;;;;5054393;27;20737;-81
2022/07/09 00:12:49;;;;;;;15.88;8.13;;;16.60;99.90;;;;;;5054007;28;20047;-81
2022/07/09 00:15:14;;;;;;;13.50;7.60;;;16.60;99.90;;;;;;5064431;28;20036;-81
2022/07/09 00:17:40;;;;;;;16.20;8.55;;;16.50;99.90;;;;;;5064053;28;20105;-80
2022/07/09 00:20:06;;;;;;;22.85;7.75;;;16.50;99.90;;;;;;5089726;27;20059;-81
2022/07/09 00:22:32;;;;;;;11.95;6.97;;;16.50;99.90;;;;;;5064084;28;20047;-82
2022/07/09 00:25:00;;;;;;;13.05;6.28;;;16.50;99.90;;;;;;5058071;28;20036;-81
2022/07/09 00:27:26;;;;;;;14.13;7.32;;;16.50;99.90;;;;;;5057112;28;20040;-81
2022/07/09 00:29:52;;;;;;;14.38;7.13;;;16.60;99.90;;;;;;5090518;27;20047;-81
2022/07/09 00:32:18;;;;;;;10.93;6.60;;;16.50;99.90;;;;;;5057602;28;20033;-81
2022/07/09 00:34:45;;;;;;;14.18;7.05;;;16.50;99.90;;;;;;5064782;28;20672;-81
2022/07/09 00:37:11;;;;;;;8.52;5.90;;;16.50;99.90;;;;;;5057082;28;20056;-81
2022/07/09 00:39:37;;;;;;;15.02;7.32;;;16.50;99.90;;;;;;5069386;28;20051;-81
2022/07/09 00:42:05;;;;;;;16.05;7.38;;;16.60;99.90;;;;;;5067959;28;20052;-81
2022/07/09 00:44:31;;;;;;;12.60;7.60;;;16.50;99.90;;;;;;5063589;28;20048;-81
2022/07/09 00:46:57;;;;;;;17.35;7.63;;;16.50;99.90;;;;;;5058791;28;20389;-82
2022/07/09 00:49:23;;;;;;;11.10;6.03;;;16.40;99.90;;;;;;5060915;28;20040;-81
2022/07/09 00:51:49;;;;;;;14.23;7.32;;;16.40;99.90;;;;;;5056929;28;20080;-81
2022/07/09 00:54:18;;;;;;;15.05;7.30;;;16.90;99.90;;;;;;5060515;28;20068;-81
2022/07/09 00:56:47;;;;;;;14.52;6.85;;;16.40;99.90;;;;;;5054691;28;20057;-81
2022/07/09 00:59:13;;;;;;;11.85;6.93;;;16.40;99.90;;;;;;5069298;28;20127;-81
2022/07/09 01:01:39;;;;;;;16.45;6.85;;;16.40;99.90;;;;;;5056395;28;20126;-82
2022/07/09 01:04:06;;;;;;;11.63;6.13;;;16.40;99.90;;;;;;5084525;28;20131;-81
2022/07/09 01:06:34;;;;;;;16.40;7.05;;;16.40;99.90;;;;;;5061725;28;20036;-81
2022/07/09 01:09:01;;;;;;;11.93;6.38;;;16.40;99.90;;;;;;5054036;28;20506;-81
2022/07/09 01:11:26;;;;;;;12.88;6.03;;;16.40;99.90;;;;;;5088859;28;20048;-81
2022/07/09 01:13:53;;;;;;;13.20;7.07;;;16.40;99.90;;;;;;5055122;28;20369;-81
2022/07/09 01:16:20;;;;;;;14.05;6.32;;;16.40;99.90;;;;;;5051615;28;20139;-82
2022/07/09 01:18:46;;;;;;;11.70;6.72;;;16.40;99.90;;;;;;5062231;28;20037;-81
2022/07/09 01:21:13;;;;;;;14.48;6.53;;;16.50;99.90;;;;;;5053087;28;20091;-81
2022/07/09 01:23:38;;;;;;;14.68;7.10;;;16.50;99.90;;;;;;5050039;28;20049;-81
2022/07/09 01:26:04;;;;;;;12.63;6.22;;;16.50;99.90;;;;;;5051268;28;20055;-81
2022/07/09 01:28:30;;;;;;;14.90;6.03;;;16.50;99.90;;;;;;5068909;28;20048;-81
2022/07/09 01:30:56;;;;;;;11.13;5.70;;;16.50;99.90;;;;;;5069727;28;20072;-81
2022/07/09 01:33:21;;;;;;;12.65;6.60;;;16.50;99.90;;;;;;5071211;28;20055;-81
2022/07/09 01:35:47;;;;;;;13.43;6.60;;;16.50;99.90;;;;;;5062664;28;20041;-81
2022/07/09 01:38:12;;;;;;;15.73;6.80;;;16.40;99.90;;;;;;5049591;28;20049;-80
2022/07/09 01:40:38;;;;;;;12.93;5.97;;;16.40;99.90;;;;;;5059790;28;20182;-81
2022/07/09 01:43:04;;;;;;;11.45;5.03;;;16.40;99.90;;;;;;5053648;28;20041;-81
2022/07/09 01:45:30;;;;;;;14.63;6.80;;;16.40;99.90;;;;;;5055061;28;20076;-80
2022/07/09 01:47:55;;;;;;;10.18;5.13;;;16.40;99.90;;;;;;5061653;28;20044;-81
2022/07/09 01:50:21;;;;;;;8.75;5.25;;;16.40;99.90;;;;;;5067332;28;20067;-81
2022/07/09 01:52:47;;;;;;;12.40;6.40;;;16.40;99.90;;;;;;5068404;28;20067;-81
2022/07/09 01:55:12;;;;;;;14.88;6.35;;;16.50;99.90;;;;;;5063861;28;20124;-81
2022/07/09 01:57:38;;;;;;;17.13;6.75;;;16.40;99.90;;;;;;5066723;28;20053;-81
2022/07/09 02:00:05;;;;;;;13.48;6.45;;;16.40;99.90;;;;;;5064566;28;20496;-81
2022/07/09 02:02:31;;;;;;;10.38;4.80;;;16.40;99.90;;;;;;5063140;27;20041;-80
2022/07/09 02:04:58;;;;;;;16.20;6.47;;;16.40;99.90;;;;;;5050356;28;20078;-80
2022/07/09 02:07:23;;;;;;;15.95;6.93;;;16.40;99.90;;;;;;5051465;28;20068;-81
2022/07/09 02:09:49;;;;;;;13.90;7.07;;;16.40;99.90;;;;;;5102221;27;20538;-80
2022/07/09 02:12:16;;;;;;;16.70;6.68;;;16.40;99.90;;;;;;5082010;28;20400;-80
2022/07/09 02:14:42;;;;;;;18.33;7.05;;;16.40;99.90;;;;;;5058699;28;20122;-81
2022/07/09 02:17:08;;;;;;;13.32;6.78;;;16.40;99.90;;;;;;5061651;28;21006;-81
2022/07/09 02:19:35;;;;;;;20.42;7.65;;;16.40;99.90;;;;;;5054811;28;20158;-80
2022/07/09 02:22:01;;;;;;;14.35;7.32;;;16.40;99.90;;;;;;5100005;28;20113;-80
2022/07/09 02:24:27;;;;;;;14.52;6.03;;;16.30;99.90;;;;;;5070484;28;20098;-81
2022/07/09 02:26:53;;;;;;;21.08;7.25;;;16.30;99.90;;;;;;5053094;28;20046;-81
2022/07/09 02:29:20;;;;;;;13.02;6.90;;;16.30;99.90;;;;;;5059271;28;20057;-81
2022/07/09 02:31:46;;;;;;;19.40;6.70;;;16.30;99.90;;;;;;5104420;27;20150;-80
2022/07/09 02:34:12;;;;;;;17.58;6.57;;;16.30;99.90;;;;;;5067714;28;20510;-80
2022/07/09 02:36:37;;;;;;;12.23;7.70;;;16.30;99.90;;;;;;5090313;27;20079;-81
2022/07/09 02:39:03;;;;;;;16.38;7.65;;;16.30;99.90;;;;;;5092393;28;20098;-81
2022/07/09 02:41:29;;;;;;;13.45;6.55;;;16.30;99.90;;;;;;5064642;28;20068;-80
2022/07/09 02:43:55;;;;;;;15.40;7.53;;;16.60;99.90;;;;;;5058810;28;20029;-81
2022/07/09 02:46:21;;;;;;;19.60;7.80;;;16.30;99.90;;;;;;5052616;28;20142;-80
2022/07/09 02:48:47;;;;;;;17.65;8.73;;;16.30;99.90;;;;;;5051632;28;20132;-81
2022/07/09 02:51:12;;;;;;;17.30;7.20;;;16.30;99.90;;;;;;5052431;28;20051;-81
2022/07/09 02:53:38;;;;;;;19.45;8.57;;;16.30;99.90;;;;;;5052071;28;20041;-81
2022/07/09 02:56:04;;;;;;;15.98;7.35;;;16.50;99.90;;;;;;5050534;28;20502;-81
2022/07/09 02:58:31;;;;;;;17.13;7.43;;;16.30;99.90;;;;;;5053258;28;20041;-81
2022/07/09 03:00:57;;;;;;;16.20;7.90;;;16.30;99.90;;;;;;5056610;28;20041;-81
2022/07/09 03:03:26;;;;;;;17.38;8.20;;;16.30;99.90;;;;;;5053102;28;20044;-81
2022/07/09 03:05:52;;;;;;;16.67;7.38;;;16.20;99.90;;;;;;5052027;28;20069;-81
2022/07/09 03:08:21;;;;;;;11.93;7.10;;;16.20;99.90;;;;;;5094841;27;20094;-81
2022/07/09 03:10:48;;;;;;;13.32;7.85;;;16.20;99.90;;;;;;5088623;28;20090;-81
2022/07/09 03:13:13;;;;;;;22.48;8.15;;;16.20;99.90;;;;;;5104003;28;20060;-81
2022/07/09 03:15:39;;;;;;;18.60;7.15;;;16.10;99.90;;;;;;5059302;28;20048;-81
2022/07/09 03:18:07;;;;;;;13.00;7.50;;;16.20;99.90;;;;;;5102058;28;20060;-81
2022/07/09 03:20:35;;;;;;;17.40;7.57;;;16.10;99.90;;;;;;5064987;28;20068;-80
2022/07/09 03:23:01;;;;;;;14.45;7.10;;;16.00;99.90;;;;;;5058855;28;20064;-80
2022/07/09 03:25:27;;;;;;;12.38;6.72;;;16.00;99.90;;;;;;5061112;28;20049;-81
2022/07/09 03:27:52;;;;;;;16.05;6.78;;;16.00;99.90;;;;;;5054188;28;20373;-80
2022/07/09 03:30:18;;;;;;;15.38;6.35;;;15.90;99.90;;;;;;5104907;28;20041;-80
2022/07/09 03:32:44;;;;;;;14.95;6.72;;;15.90;99.90;;;;;;5057991;28;20123;-81
2022/07/09 03:35:10;;;;;;;13.93;7.18;;;15.90;99.90;;;;;;5052833;28;20129;-81
2022/07/09 03:37:36;;;;;;;18.35;7.22;;;15.90;99.90;;;;;;5051072;28;20049;-81
2022/07/09 03:40:04;;;;;;;14.50;7.43;;;15.90;99.90;;;;;;5098211;28;20135;-80
2022/07/09 03:42:30;;;;;;;13.90;7.72;;;15.80;99.90;;;;;;5102442;28;20132;-81
2022/07/09 03:44:55;;;;;;;12.23;6.28;;;15.80;99.90;;;;;;5070050;28;20127;-81
2022/07/09 03:47:21;;;;;;;12.35;7.03;;;15.80;99.90;;;;;;5095526;27;20188;-81
2022/07/09 03:49:46;;;;;;;14.55;6.60;;;15.80;99.90;;;;;;5057242;28;20098;-80
2022/07/09 03:52:12;;;;;;;16.50;6.72;;;15.80;99.90;;;;;;5070456;28;20123;-80
2022/07/09 03:54:38;;;;;;;16.60;7.47;;;15.80;99.90;;;;;;5069393;28;20418;-81
2022/07/09 03:57:05;;;;;;;17.17;7.78;;;15.80;99.90;;;;;;5097360;28;20048;-81
2022/07/09 03:59:31;;;;;;;12.35;7.20;;;15.80;99.90;;;;;;5052204;28;20055;-81
2022/07/09 04:01:56;;;;;;;14.90;7.00;;;15.80;99.90;;;;;;5059031;28;20040;-81
2022/07/09 04:04:22;;;;;;;13.65;7.75;;;15.80;99.90;;;;;;5061237;28;20499;-81
2022/07/09 04:06:47;;;;;;;14.93;7.88;;;15.80;99.90;;;;;;5062337;28;20044;-80
2022/07/09 04:09:13;;;;;;;15.00;6.47;;;16.00;99.90;;;;;;5087468;28;20041;-81
2022/07/09 04:11:39;;;;;;;12.93;6.78;;;15.80;99.90;;;;;;5087483;27;20102;-81
2022/07/09 04:14:04;;;;;;;14.23;6.80;;;15.80;99.90;;;;;;5069581;28;20040;-81
2022/07/09 04:16:30;;;;;;;13.80;6.85;;;15.80;99.90;;;;;;5064700;28;20037;-81
2022/07/09 04:18:55;;;;;;;15.85;6.65;;;15.80;99.90;;;;;;5059795;28;20045;-80
2022/07/09 04:21:21;;;;;;;12.82;6.63;;;15.80;99.90;;;;;;5070195;28;20396;-80
2022/07/09 04:23:51;;;;;;;15.60;7.05;;;15.80;99.90;;;;;;5058527;28;20512;-81
2022/07/09 04:26:18;;;;;;;15.05;7.40;;;15.80;99.90;;;;;;5058317;28;20037;-81
2022/07/09 04:28:44;;;;;;;13.93;5.85;;;15.90;99.90;;;;;;5054398;28;20049;-81
2022/07/09 04:31:10;;;;;;;15.10;6.68;;;15.90;99.90;;;;;;5062209;28;20401;-81
2022/07/09 04:33:36;;;;;;;15.70;6.82;;;15.90;99.90;;;;;;5056812;28;20041;-81
2022/07/09 04:36:01;;;;;;;13.25;6.35;;;15.90;99.90;;;;;;5053153;28;20416;-81
2022/07/09 04:38:27;;;;;;;13.20;6.35;;;15.90;99.90;;;;;;5059937;28;20110;-81
2022/07/09 04:40:54;;;;;;;12.00;6.68;;;16.30;99.90;;;;;;5069953;28;20052;-81
2022/07/09 04:43:20;;;;;;;12.70;6.22;;;16.00;99.90;;;;;;5096559;28;20048;-81
2022/07/09 04:45:46;;;;;;;14.63;6.13;;;16.30;99.90;;;;;;5068872;28;20043;-81
2022/07/09 04:48:11;;;;;;;13.52;6.95;;;16.00;99.90;;;;;;5093316;28;20045;-81
2022/07/09 04:50:37;;;;;;;13.05;5.32;;;16.10;99.90;;;;;;5051500;28;20481;-81
2022/07/09 04:53:02;;;;;;;13.10;5.97;;;16.10;99.90;;;;;;5067573;28;20037;-81
2022/07/09 04:55:28;;;;;;;14.38;5.70;;;16.20;99.90;;;;;;5066100;28;20134;-82
2022/07/09 04:57:54;;;;;;;14.98;5.43;;;16.20;99.90;;;;;;5063230;28;20044;-81
2022/07/09 05:00:19;;;;;;;14.00;5.70;;;16.20;99.90;;;;;;5060678;28;20147;-81
2022/07/09 05:02:45;;;;;;;11.63;5.35;;;16.20;99.90;;;;;;5051843;28;20477;-81
2022/07/09 05:05:11;;;;;;;14.95;5.88;;;16.30;99.90;;;;;;5061011;28;20044;-81
2022/07/09 05:07:37;;;;;;;12.75;5.60;;;16.20;99.90;;;;;;5060322;28;20039;-81
2022/07/09 05:10:03;;;;;;;9.15;4.68;;;16.30;99.90;;;;;;5068458;28;20040;-81
2022/07/09 05:12:30;;;;;;;11.63;5.47;;;16.40;99.90;;;;;;5068115;27;20044;-79
2022/07/09 05:14:56;;;;;;;9.90;4.57;;;16.40;99.90;;;;;;5061520;28;20053;-79
2022/07/09 05:17:22;;;;;;;11.13;5.70;;;16.40;99.90;;;;;;5055591;27;20040;-79
2022/07/09 05:19:48;;;;;;;13.10;5.28;;;16.50;99.90;;;;;;5064974;28;20485;-80
2022/07/09 05:22:13;;;;;;;10.57;5.20;;;16.50;99.90;;;;;;5068982;28;20044;-79
2022/07/09 05:24:40;;;;;;;9.27;5.22;;;16.60;99.90;;;;;;5065317;28;20088;-79
2022/07/09 05:27:06;;;;;;;10.73;4.70;;;16.60;99.90;;;;;;5050391;28;20044;-79
2022/07/09 05:29:32;;;;;;;11.32;5.53;;;16.60;99.90;;;;;;5086226;28;20232;-80
2022/07/09 05:31:58;;;;;;;12.80;4.90;;;16.70;99.90;;;;;;5059844;28;20048;-81
2022/07/09 05:34:24;;;;;;;10.45;5.10;;;16.80;99.90;;;;;;5068370;27;20423;-80
2022/07/09 05:36:54;;;;;;;10.35;4.50;;;16.80;99.90;;;;;;5051486;28;20136;-81
2022/07/09 05:39:20;;;;;;;11.40;5.00;;;16.90;99.90;;;;;;5059432;28;20633;-82
2022/07/09 05:41:46;;;;;;;10.45;5.13;;;16.90;99.90;;;;;;5066813;28;20041;-81
2022/07/09 05:44:11;;;;;;;10.10;4.70;;;17.00;99.90;;;;;;5056722;28;20049;-81
2022/07/09 05:46:37;;;;;;;8.07;4.30;;;17.00;99.90;;;;;;5092449;28;20485;-81
2022/07/09 05:49:03;;;;;;;11.70;4.88;;;17.00;99.90;;;;;;5052389;28;20448;-80
2022/07/09 05:51:28;;;;;;;10.45;4.53;;;17.10;99.90;;;;;;5070020;28;20449;-80
2022/07/09 05:53:54;;;;;;;8.32;4.13;;;17.10;99.90;;;;;;5059525;28;20048;-80
2022/07/09 05:56:20;;;;;;;11.55;4.65;;;17.10;99.90;;;;;;5073401;28;20080;-79
2022/07/09 05:58:46;;;;;;;10.63;5.35;;;17.20;99.90;;;;;;5059786;28;20111;-80
2022/07/09 06:01:12;;;;;;;9.75;4.70;;;17.20;99.90;;;;;;5095562;28;20190;-80
2022/07/09 06:03:39;;;;;;;9.25;4.10;;;17.20;99.90;;;;;;5069161;28;20436;-80
2022/07/09 06:06:05;;;;;;;8.45;4.45;;;17.20;99.90;;;;;;5091466;28;20395;-79
2022/07/09 06:08:31;;;;;;;8.50;4.30;;;17.20;99.90;;;;;;5070408;28;20045;-78
2022/07/09 06:10:57;;;;;;;8.02;4.50;;;17.20;99.90;;;;;;5064136;28;20522;-80
2022/07/09 06:13:23;;;;;;;7.55;3.58;;;17.30;99.90;;;;;;5068748;28;20064;-79
2022/07/09 06:15:49;;;;;;;9.13;4.10;;;17.30;99.90;;;;;;5056135;28;20103;-80
2022/07/09 06:18:15;;;;;;;9.63;3.90;;;17.30;99.90;;;;;;5064098;28;20036;-80
2022/07/09 06:20:40;;;;;;;10.60;4.70;;;17.40;99.90;;;;;;5069296;28;20048;-80
2022/07/09 06:23:06;;;;;;;12.48;4.03;;;17.40;99.90;;;;;;5057602;28;20041;-80
2022/07/09 06:25:32;;;;;;;8.50;3.72;;;17.40;99.90;;;;;;5069035;28;20048;-79
2022/07/09 06:27:58;;;;;;;12.07;4.07;;;17.40;99.90;;;;;;5072948;28;20438;-79
2022/07/09 06:30:24;;;;;;;10.00;4.32;;;17.40;99.90;;;;;;5068144;28;20381;-79
2022/07/09 06:32:50;;;;;;;10.23;4.47;;;17.40;99.90;;;;;;5062278;28;20099;-80
2022/07/09 06:35:16;;;;;;;10.00;3.88;;;17.60;99.90;;;;;;5101058;27;20040;-82
2022/07/09 06:37:41;;;;;;;8.20;3.65;;;17.50;99.90;;;;;;5088940;28;20056;-81
2022/07/09 06:40:08;;;;;;;10.75;3.72;;;17.50;99.90;;;;;;5061202;28;20454;-82
2022/07/09 06:42:33;;;;;;;10.77;3.90;;;17.60;99.90;;;;;;5071829;28;20041;-82
2022/07/09 06:44:59;;;;;;;7.28;3.47;;;17.70;99.90;;;;;;5061800;28;20091;-82
2022/07/09 06:47:25;;;;;;;9.52;3.72;;;17.70;99.90;;;;;;5068116;28;20048;-81
2022/07/09 06:49:50;;;;;;;8.45;3.60;;;17.80;99.90;;;;;;5063081;28;20041;-80
2022/07/09 06:52:16;;;;;;;10.63;3.80;;;17.80;99.90;;;;;;5068286;28;20422;-81
2022/07/09 06:54:41;;;;;;;8.88;3.60;;;17.80;99.90;;;;;;5069757;28;20047;-80
2022/07/09 06:57:09;;;;;;;11.57;4.25;;;17.90;99.90;;;;;;5069445;28;20533;-79
2022/07/09 06:59:35;;;;;;;8.43;3.95;;;17.90;99.90;;;;;;5059221;28;20079;-80
2022/07/09 07:02:01;;;;;;;5.93;3.35;;;17.90;99.90;;;;;;5067967;28;20041;-79
2022/07/09 07:04:27;;;;;;;8.00;3.25;;;18.00;99.90;;;;;;5072567;28;20047;-79
2022/07/09 07:06:52;;;;;;;8.82;3.65;;;17.90;99.90;;;;;;5067299;28;20037;-80
2022/07/09 07:09:18;;;;;;;8.10;3.58;;;17.90;99.90;;;;;;5057210;28;20136;-79
2022/07/09 07:11:48;;;;;;;6.47;3.28;;;17.90;99.90;;;;;;5055978;28;20140;-79
2022/07/09 07:14:15;;;;;;;11.55;3.08;;;18.00;99.90;;;;;;5053762;28;20083;-83
2022/07/09 07:16:41;;;;;;;9.30;2.90;;;18.10;99.90;;;;;;5065928;28;20040;-82
2022/07/09 07:19:07;;;;;;;8.43;3.28;;;18.60;99.90;;;;;;5071546;28;20107;-82
2022/07/09 07:21:32;;;;;;;9.48;2.97;;;18.00;99.90;;;;;;5068694;28;20036;-84
2022/07/09 07:23:58;;;;;;;7.65;3.13;;;17.60;99.90;;;;;;5064173;28;20120;-83
2022/07/09 07:26:24;;;;;;;6.97;2.47;;;18.10;99.90;;;;;;5058011;28;20067;-84
2022/07/09 07:28:50;;;;;;;9.23;2.90;;;18.00;99.90;;;;;;5051685;28;20388;-79
2022/07/09 07:31:16;;;;;;;6.82;2.60;;;18.20;99.90;;;;;;5067999;28;20044;-79
2022/07/09 07:33:41;;;;;;;7.85;2.92;;;18.30;99.90;;;;;;5072303;28;20126;-77
2022/07/09 07:36:08;;;;;;;8.45;2.58;;;18.30;99.90;;;;;;5053137;28;20130;-84
2022/07/09 07:38:34;;;;;;;7.72;2.60;;;18.40;99.90;;;;;;5050786;28;20544;-83
2022/07/09 07:41:00;;;;;;;8.02;2.28;;;18.40;99.90;;;;;;5056795;28;20602;-83
2022/07/09 07:43:26;;;;;;;5.50;2.10;;;18.60;99.90;;;;;;5071072;28;20044;-79
2022/07/09 07:45:51;;;;;;;6.68;2.17;;;18.70;99.90;;;;;;5066578;28;20044;-82
2022/07/09 07:48:17;;;;;;;6.30;2.25;;;18.90;99.90;;;;;;5066552;28;20041;-83
2022/07/09 07:50:42;;;;;;;6.05;2.22;;;19.00;99.90;;;;;;5070935;28;20059;-83
2022/07/09 07:53:08;;;;;;;8.10;2.55;;;19.20;99.90;;;;;;5071940;27;20439;-82
2022/07/09 07:55:34;;;;;;;6.38;2.40;;;19.40;99.90;;;;;;5065777;28;20080;-82
2022/07/09 07:58:00;;;;;;;6.82;2.40;;;19.40;99.90;;;;;;5051857;28;20488;-83
2022/07/09 08:00:26;;;;;;;6.55;2.00;;;19.40;99.90;;;;;;5063448;28;20040;-83
2022/07/09 08:02:51;;;;;;;6.68;1.88;;;19.40;99.90;;;;;;5055692;28;20040;-82
2022/07/09 08:05:34;;;;;;;3.53;1.40;;;19.60;99.90;;;;;;5051869;28;20045;-83
2022/07/09 08:07:59;;;;;;;5.85;1.40;;;19.30;99.90;;;;;;5052469;28;20053;-82
2022/07/09 08:10:26;;;;;;;9.65;2.10;;;19.40;99.90;;;;;;5063665;28;20036;-83
2022/07/09 08:12:51;;;;;;;6.47;1.70;;;19.50;99.90;;;;;;5052715;28;20419;-83
2022/07/09 08:15:17;;;;;;;6.53;1.80;;;19.60;99.90;;;;;;5064536;28;20052;-81
2022/07/09 08:17:44;;;;;;;5.97;1.70;;;19.80;99.90;;;;;;5055952;28;20053;-81
2022/07/09 08:20:10;;;;;;;5.95;1.90;;;19.80;99.90;;;;;;5054986;28;20085;-80
2022/07/09 08:22:36;;;;;;;7.28;1.90;;;19.90;99.90;;;;;;5058526;28;20032;-80
2022/07/09 08:25:02;;;;;;;5.15;1.58;;;20.00;99.90;;;;;;5064349;28;20041;-80
2022/07/09 08:27:28;;;;;;;5.80;1.70;;;19.90;99.90;;;;;;5068934;28;20561;-80
2022/07/09 08:29:53;;;;;;;11.13;1.77;;;20.00;99.90;;;;;;5052602;28;20169;-84
2022/07/09 08:32:19;;;;;;;5.65;1.65;;;20.10;99.90;;;;;;5089726;27;20053;-77
2022/07/09 08:34:44;;;;;;;6.55;1.73;;;20.00;99.90;;;;;;5060033;28;20120;-77
2022/07/09 08:37:10;;;;;;;4.22;1.52;;;20.10;99.90;;;;;;5055470;28;20044;-76
2022/07/09 08:39:36;;;;;;;5.32;1.40;;;20.00;99.90;;;;;;5070131;28;20098;-77
2022/07/09 08:42:03;;;;;;;7.25;1.60;;;20.00;99.90;;;;;;5054973;28;20040;-77
2022/07/09 08:44:31;;;;;;;6.05;1.50;;;20.10;99.90;;;;;;5052899;28;20045;-77
2022/07/09 08:46:58;;;;;;;6.85;1.40;;;20.20;99.90;;;;;;5099934;28;20110;-77
2022/07/09 08:49:26;;;;;;;3.53;1.10;;;20.40;99.90;;;;;;5058313;28;20045;-76
2022/07/09 08:51:54;;;;;;;5.97;1.40;;;20.50;99.90;;;;;;5054561;28;20040;-76
2022/07/09 08:54:20;;;;;;;6.55;1.35;;;20.70;99.90;;;;;;5057111;28;20056;-76
2022/07/09 08:56:46;;;;;;;6.55;1.40;;;21.00;99.90;;;;;;5065247;28;20123;-76
2022/07/09 08:59:12;;;;;;;6.18;1.30;;;21.10;99.90;;;;;;5054025;28;20131;-77
2022/07/09 09:01:38;;;;;;;5.05;1.20;;;21.10;99.90;;;;;;5056483;28;20055;-76
2022/07/09 09:04:04;;;;;;;5.57;1.40;;;21.00;99.90;;;;;;5062679;28;20040;-76
2022/07/09 09:06:37;;;;;;;7.05;1.67;;;21.00;99.90;;;;;;5055771;28;20539;-76
2022/07/09 09:09:03;;;;;;;9.93;1.45;;;20.90;99.90;;;;;;5057933;28;20053;-76
2022/07/09 09:11:28;;;;;;;7.57;1.50;;;20.80;99.90;;;;;;5053554;28;20033;-76
2022/07/09 09:13:54;;;;;;;6.72;1.70;;;20.70;99.90;;;;;;5069307;28;20040;-77
2022/07/09 09:16:22;;;;;;;5.55;1.50;;;20.70;99.90;;;;;;5065582;28;20441;-76
2022/07/09 09:18:50;;;;;;;8.10;1.58;;;21.30;99.90;;;;;;5065745;28;20068;-76
2022/07/09 09:21:18;;;;;;;2.78;1.20;;;21.10;99.90;;;;;;5053187;28;20036;-76
2022/07/09 09:23:49;;;;;;;7.03;1.20;;;21.20;99.90;;;;;;5061010;28;20579;-75
2022/07/09 09:26:17;;;;;;;6.68;1.10;;;21.30;99.90;;;;;;5061550;28;20067;-75
2022/07/09 09:28:50;;;;;;;4.43;1.35;;;21.30;99.90;;;;;;5053957;28;20120;-75
2022/07/09 09:31:24;;;;;;;6.65;1.05;;;21.20;99.90;;;;;;5063445;28;20084;-76
2022/07/09 09:33:55;;;;;;;4.70;1.40;;;21.00;99.90;;;;;;5058509;28;20461;-76
2022/07/09 09:36:35;;;;;;;2.88;0.93;;;21.10;99.90;;;;;;5062675;28;20785;-76
2022/07/09 09:39:19;;;;;;;4.55;1.17;;;21.40;99.90;;;;;;5073283;28;20056;-76
2022/07/09 09:41:50;;;;;;;6.97;1.25;;;21.40;99.90;;;;;;5071516;28;20109;-77
2022/07/09 09:44:19;;;;;;;2.60;1.00;;;21.50;99.90;;;;;;5072010;28;20412;-77
2022/07/09 09:46:46;;;;;;;8.25;1.52;;;21.60;99.90;;;;;;5055187;28;20045;-76
2022/07/09 09:49:14;;;;;;;7.00;1.40;;;21.70;99.90;;;;;;5054789;28;20084;-77
2022/07/09 09:51:51;;;;;;;12.00;1.85;;;21.70;99.90;;;;;;5104534;28;20044;-79
2022/07/09 09:54:18;;;;;;;8.52;1.48;;;21.70;99.90;;;;;;5062312;28;20400;-79
2022/07/09 09:56:44;;;;;;;4.97;1.30;;;21.70;99.90;;;;;;5059687;28;20048;-78
2022/07/09 09:59:11;;;;;;;6.43;1.30;;;21.60;99.90;;;;;;5060181;28;20052;-78
2022/07/09 10:01:39;;;;;;;7.05;1.17;;;21.30;99.90;;;;;;5068014;28;20089;-78
2022/07/09 10:04:05;;;;;;;7.60;1.60;;;21.20;99.90;;;;;;5055033;28;20483;-79
2022/07/09 10:06:32;;;;;;;9.77;2.20;;;21.20;99.90;;;;;;5065534;28;20131;-81
2022/07/09 10:08:57;;;;;;;6.95;1.70;;;21.10;99.90;;;;;;5056563;28;20076;-81
2022/07/09 10:11:23;;;;;;;7.07;1.52;;;21.50;99.90;;;;;;5056098;28;20095;-81
2022/07/09 10:13:56;;;;;;;9.48;1.40;;;21.60;99.90;;;;;;5069015;28;20036;-81
2022/07/09 10:16:40;;;;;;;7.40;1.50;;;21.60;99.90;;;;;;5059345;28;20074;-80
2022/07/09 10:19:06;;;;;;;5.75;1.50;;;21.60;99.90;;;;;;5057627;28;20377;-80
2022/07/09 10:21:33;;;;;;;7.93;1.30;;;21.60;99.90;;;;;;5051764;28;20052;-80
2022/07/09 10:23:59;;;;;;;3.53;1.10;;;21.70;99.90;;;;;;5067538;28;20106;-80
2022/07/09 10:26:46;;;;;;;3.58;1.00;;;21.80;99.90;;;;;;5103677;27;20048;-80
2022/07/09 10:29:25;;;;;;;3.65;0.90;;;21.90;99.90;;;;;;5069810;27;20083;-80
2022/07/09 10:31:52;;;;;;;6.15;1.30;;;22.00;99.90;;;;;;5066587;28;20055;-80
2022/07/09 10:34:51;;;;;;;7.72;1.13;;;22.00;99.90;;;;;;5061864;28;20032;-82
2022/07/09 10:37:17;;;;;;;7.80;1.20;;;22.00;99.90;;;;;;5064322;28;20044;-82
2022/07/09 10:39:53;;;;;;;4.15;1.23;;;22.10;99.90;;;;;;5063645;28;20106;-84
2022/07/09 10:42:23;;;;;;;5.15;1.50;;;22.10;99.90;;;;;;5071222;28;20044;-81
2022/07/09 10:44:53;;;;;;;7.53;1.77;;;22.00;99.90;;;;;;5048074;28;20040;-82
2022/07/09 10:47:19;;;;;;;8.55;1.58;;;22.30;99.90;;;;;;5053895;28;20095;-80
2022/07/09 10:49:44;;;;;;;6.07;1.48;;;22.40;99.90;;;;;;5069133;28;20052;-81
2022/07/09 10:52:10;;;;;;;5.85;1.48;;;22.50;99.90;;;;;;5066274;28;20131;-80
2022/07/09 10:54:48;;;;;;;8.82;1.40;;;22.30;99.90;;;;;;5054546;28;20053;-79
2022/07/09 10:57:14;;;;;;;7.22;1.55;;;21.90;99.90;;;;;;5065094;28;20562;-81
2022/07/09 10:59:45;;;;;;;10.77;1.83;;;21.60;99.90;;;;;;5060273;28;20045;-81
2022/07/09 11:02:21;;;;;;;9.02;1.65;;;21.60;99.90;;;;;;5063866;27;20503;-82
2022/07/09 11:04:52;;;;;;;5.95;1.50;;;21.20;99.90;;;;;;5057057;28;20047;-83
2022/07/09 11:07:25;;;;;;;8.98;1.73;;;21.00;99.90;;;;;;5056321;28;20049;-85
2022/07/09 11:09:52;;;;;;;7.57;1.65;;;21.10;99.90;;;;;;5094061;27;20049;-85
2022/07/09 11:12:19;;;;;;;7.72;1.42;;;21.10;99.90;;;;;;5075797;28;20048;-85
2022/07/09 11:14:49;;;;;;;7.20;1.30;;;21.20;99.90;;;;;;5069412;28;20562;-86
2022/07/09 11:17:19;;;;;;;9.35;1.88;;;21.20;99.90;;;;;;5105518;28;20127;-85
2022/07/09 11:19:49;;;;;;;6.63;1.35;;;21.20;99.90;;;;;;5055330;28;20116;-84
2022/07/09 11:22:15;;;;;;;7.80;1.48;;;21.20;99.90;;;;;;5068712;28;20118;-84
2022/07/09 11:24:41;;;;;;;5.15;1.33;;;21.40;99.90;;;;;;5064176;28;20048;-83
2022/07/09 11:27:08;;;;;;;9.75;1.70;;;21.50;99.90;;;;;;5050958;28;20045;-86
2022/07/09 11:29:36;;;;;;;8.60;1.85;;;21.80;99.90;;;;;;5050304;28;20041;-79
2022/07/09 11:32:02;;;;;;;7.70;1.63;;;21.90;99.90;;;;;;5051279;28;20473;-84
2022/07/09 11:34:29;;;;;;;10.23;1.52;;;21.80;99.90;;;;;;5058374;28;20048;-85
2022/07/09 11:36:56;;;;;;;7.57;1.30;;;21.80;99.90;;;;;;5068536;28;20415;-85
2022/07/09 11:39:31;;;;;;;9.75;1.20;;;21.70;99.90;;;;;;5056972;28;20107;-84
2022/07/09 11:41:57;;;;;;;;;;;21.80;99.90;;;;;;5070778;28;20361;-85
2022/07/09 11:44:25;;;;;;;6.75;1.05;;;21.80;99.90;;;;;;5058512;28;19978;-85
2022/07/09 11:47:11;;;;;;;5.07;1.13;;;21.90;99.90;;;;;;5057598;28;20045;-87
2022/07/09 11:49:40;;;;;;;3.90;1.10;;;22.10;99.90;;;;;;5061293;28;20045;-88
2022/07/09 11:52:22;;;;;;;5.57;1.23;;;22.20;99.90;;;;;;5053835;28;20040;-87
2022/07/09 11:55:07;;;;;;;5.32;0.80;;;22.30;99.90;;;;;;5060749;28;20037;-88
2022/07/09 11:57:35;;;;;;;6.38;0.80;;;22.40;99.90;;;;;;5100291;28;20119;-86
2022/07/09 12:00:01;;;;;;;6.85;1.00;;;22.50;99.90;;;;;;5067727;28;20068;-83
2022/07/09 12:02:33;;;;;;;8.55;0.77;;;22.60;99.90;;;;;;5070520;28;20044;-84
2022/07/09 12:05:00;;;;;;;4.28;0.80;;;22.70;99.90;;;;;;5071831;28;20736;-86
2022/07/09 12:07:27;;;;;;;5.35;0.95;;;22.70;99.90;;;;;;5097773;27;20073;-84
2022/07/09 12:10:10;;;;;;;2.40;0.50;;;22.50;99.90;;;;;;5049694;28;20452;-90
2022/07/09 12:12:36;;;;;;;5.82;1.00;;;22.40;97.70;;;;;;5058158;28;20450;-90
2022/07/09 12:15:04;;;;;;;3.83;0.88;;;22.30;99.90;;;;;;5070078;28;20048;-92
2022/07/09 12:17:31;;;;;;;4.25;0.80;;;22.30;99.50;;;;;;5067006;28;20075;-86
2022/07/09 12:19:58;;;;;;;5.65;0.82;;;22.30;99.90;;;;;;5052120;28;20055;-88
2022/07/09 12:22:25;;;;;;;3.45;0.82;;;22.40;99.90;;;;;;5053319;28;20042;-85
2022/07/09 12:24:54;;;;;;;6.45;1.00;;;22.50;99.90;;;;;;5069993;28;20094;-86
2022/07/09 12:27:20;;;;;;;5.47;1.10;;;22.50;99.70;;;;;;5090161;28;20087;-85
2022/07/09 12:29:46;;;;;;;5.28;1.00;;;22.60;99.90;;;;;;5052271;28;20516;-85
2022/07/09 12:32:13;;;;;;;6.60;0.90;;;22.70;99.90;;;;;;5068789;28;20413;-85
2022/07/09 12:34:38;;;;;;;6.43;1.00;;;22.70;99.90;;;;;;5056768;28;20087;-85
2022/07/09 12:37:04;;;;;;;3.90;0.88;;;22.70;99.90;;;;;;5060237;28;20052;-86
2022/07/09 12:39:30;;;;;;;5.30;1.10;;;22.50;99.70;;;;;;5068990;28;20061;-84
2022/07/09 12:41:58;;;;;;;4.15;0.82;;;22.60;99.60;;;;;;5058100;28;20124;-86